Terminal Aerodrome Forecast
Issued by NWS Grand Forks, ND

Home | Current Version | Previous Version | Text Only | Print | Product List | Glossary Off
Versions: 1 2 3 4 5 6 7 8 9 10 11 12 13 14 15 16 17 18

000
FTUS43 KFGF 242301 AAA
TAFGFK
TAF AMD
KGFK 242301Z 2423/2518 35014G21KT P6SM SKC
     FM250200 VRB06KT P6SM SKC
     FM251200 19008KT P6SM FEW250
     FM251600 21012G22KT P6SM FEW250=

USA.gov is the U.S. government's official web portal to all federal, state and local government web resources and services.